Terminal Aerodrome Forecast
Issued by NWS

Home | Current Version | Previous Version | Text Only | Print | Product List | Glossary On
Versions: 1 2 3 4 5 6 7 8 9 10 11 12
000
FTUS46 KSEW 061134
TAFOLM
TAF
KOLM 061134Z 0612/0712 21005KT 6SM BR SCT007
      TEMPO 0613/0617 4SM BR BKN007
     FM061800 25006KT P6SM SKC
     FM070200 VRB03KT P6SM SKC
     FM071000 VRB03KT 6SM BCFG SKC=

USA.gov is the U.S. government's official web portal to all federal, state and local government web resources and services.